createdAt,value
2018-06-29T00:01:07.200Z,4.57
2018-06-29T00:03:35.660Z,4.53
2018-06-29T00:06:04.125Z,4.17
2018-06-29T00:08:32.940Z,2.70
2018-06-29T00:11:01.541Z,3.30
2018-06-29T00:13:30.013Z,5.27
2018-06-29T00:15:58.457Z,5.03
2018-06-29T00:18:26.892Z,4.00
2018-06-29T00:20:55.377Z,4.03
2018-06-29T00:23:23.800Z,6.83
2018-06-29T00:25:52.337Z,5.83
2018-06-29T00:28:20.800Z,3.87
2018-06-29T00:30:49.266Z,4.53
2018-06-29T00:33:17.693Z,3.17
2018-06-29T00:35:46.252Z,5.30
2018-06-29T00:38:14.700Z,4.07
2018-06-29T00:40:43.215Z,3.97
2018-06-29T00:43:11.660Z,7.07
2018-06-29T00:45:40.205Z,3.23
2018-06-29T00:48:08.680Z,2.80
2018-06-29T00:50:37.096Z,3.83
2018-06-29T00:53:05.609Z,3.87
2018-06-29T00:55:34.065Z,5.10
2018-06-29T00:58:02.543Z,2.97
2018-06-29T01:00:31.005Z,3.73
2018-06-29T01:02:59.531Z,5.83
2018-06-29T01:05:27.980Z,5.57
2018-06-29T01:07:56.452Z,5.30
2018-06-29T01:10:25.044Z,4.37
2018-06-29T01:12:53.523Z,3.73
2018-06-29T01:15:22.100Z,3.17
2018-06-29T01:17:50.526Z,5.80
2018-06-29T01:20:19.009Z,3.97
2018-06-29T01:22:47.157Z,2.77
2018-06-29T01:25:15.641Z,7.20
2018-06-29T01:27:44.081Z,4.17
2018-06-29T01:30:12.557Z,3.80
2018-06-29T01:32:44.720Z,6.50
2018-06-29T01:35:13.216Z,5.57
2018-06-29T01:37:41.657Z,4.43
2018-06-29T01:40:10.156Z,2.67
2018-06-29T01:42:38.611Z,4.13
2018-06-29T01:45:06.896Z,2.97
2018-06-29T01:47:35.340Z,5.20
2018-06-29T01:50:03.968Z,2.57
2018-06-29T01:52:32.497Z,3.93
2018-06-29T01:55:00.973Z,3.10
2018-06-29T01:57:29.864Z,4.43
2018-06-29T01:59:58.325Z,3.97
2018-06-29T02:02:26.932Z,3.40
2018-06-29T02:04:55.380Z,4.77
2018-06-29T02:07:23.888Z,3.20
2018-06-29T02:09:52.321Z,4.57
2018-06-29T02:12:20.756Z,5.13
2018-06-29T02:14:49.202Z,5.43
2018-06-29T02:17:17.633Z,4.20
2018-06-29T02:19:46.100Z,3.53
2018-06-29T02:22:14.561Z,4.97
2018-06-29T02:24:42.992Z,3.80
2018-06-29T02:27:11.441Z,4.13
2018-06-29T02:29:39.873Z,4.80
2018-06-29T02:32:08.657Z,5.87
2018-06-29T02:34:37.224Z,5.70
2018-06-29T02:37:05.703Z,4.53
2018-06-29T02:39:34.177Z,3.57
2018-06-29T02:42:02.673Z,4.20
2018-06-29T02:44:31.114Z,3.10
2018-06-29T02:46:59.580Z,4.53
2018-06-29T02:49:28.016Z,4.27
2018-06-29T02:51:56.449Z,5.00
2018-06-29T02:54:24.900Z,6.73
2018-06-29T02:56:53.344Z,4.40
2018-06-29T02:59:21.811Z,3.67
2018-06-29T03:01:50.258Z,4.83
2018-06-29T03:04:18.839Z,3.87
2018-06-29T03:06:47.300Z,4.00
2018-06-29T03:09:15.948Z,4.67
2018-06-29T03:11:44.417Z,2.90
2018-06-29T03:14:12.849Z,5.40
2018-06-29T03:16:41.336Z,3.63
2018-06-29T03:19:09.753Z,4.37
2018-06-29T03:21:38.234Z,3.50
2018-06-29T03:24:06.755Z,5.60
2018-06-29T03:26:35.452Z,4.73
2018-06-29T03:29:03.912Z,3.47
2018-06-29T03:31:32.402Z,4.87
2018-06-29T03:34:01.125Z,4.07
2018-06-29T03:36:29.585Z,7.40
2018-06-29T03:38:58.040Z,4.40
2018-06-29T03:41:26.508Z,3.90
2018-06-29T03:43:54.999Z,5.87
2018-06-29T03:46:23.481Z,6.30
2018-06-29T03:48:52.012Z,3.83
2018-06-29T03:51:20.513Z,5.17
2018-06-29T03:53:48.945Z,7.30
2018-06-29T03:56:17.379Z,4.37
2018-06-29T03:58:45.824Z,6.03
2018-06-29T04:01:14.278Z,5.03
2018-06-29T04:03:42.717Z,4.53
2018-06-29T04:06:11.428Z,4.07
2018-06-29T04:08:39.885Z,4.53
2018-06-29T04:11:08.380Z,4.30
2018-06-29T04:13:36.965Z,4.20
2018-06-29T04:16:05.545Z,5.07
2018-06-29T04:18:34.022Z,3.67
2018-06-29T04:21:02.521Z,5.37
2018-06-29T04:23:31.013Z,4.80
2018-06-29T04:25:59.188Z,5.87
2018-06-29T04:28:27.609Z,2.93
2018-06-29T04:30:56.088Z,5.37
2018-06-29T04:33:24.683Z,5.20
2018-06-29T04:35:53.150Z,3.10
2018-06-29T04:38:21.648Z,4.83
2018-06-29T04:40:50.094Z,5.07
2018-06-29T04:43:18.528Z,4.63
2018-06-29T04:45:46.989Z,4.30
2018-06-29T04:48:15.464Z,3.10
2018-06-29T04:50:44.295Z,5.00
2018-06-29T04:53:12.406Z,3.90
2018-06-29T04:55:40.893Z,3.57
2018-06-29T04:58:09.366Z,4.37
2018-06-29T05:00:37.929Z,4.30
2018-06-29T05:03:06.381Z,4.67
2018-06-29T05:05:34.532Z,5.67
2018-06-29T05:08:02.967Z,3.47
2018-06-29T05:10:31.420Z,5.43
2018-06-29T05:12:59.845Z,6.80
2018-06-29T05:15:28.416Z,4.47
2018-06-29T05:17:56.830Z,4.43
2018-06-29T05:20:25.325Z,5.30
2018-06-29T05:22:54.969Z,7.33
2018-06-29T05:25:23.449Z,5.80
2018-06-29T05:27:52.021Z,6.77
2018-06-29T05:30:20.496Z,4.60
2018-06-29T05:32:48.942Z,3.87
2018-06-29T05:35:17.191Z,4.37
2018-06-29T05:37:45.624Z,5.30
2018-06-29T05:40:14.125Z,4.03
2018-06-29T05:42:42.623Z,3.87
2018-06-29T05:45:11.021Z,3.97
2018-06-29T05:47:39.578Z,5.30
2018-06-29T05:50:08.128Z,7.17
2018-06-29T05:52:36.608Z,7.13
2018-06-29T05:55:06.144Z,11.33
2018-06-29T05:57:34.862Z,7.23
2018-06-29T06:00:03.414Z,6.43
2018-06-29T06:02:31.971Z,6.00
2018-06-29T06:05:00.427Z,4.27
2018-06-29T06:07:28.664Z,4.47
2018-06-29T06:09:57.170Z,6.50
2018-06-29T06:12:25.640Z,5.50
2018-06-29T06:14:54.091Z,7.40
2018-06-29T06:17:22.576Z,7.07
2018-06-29T06:20:04.952Z,6.80
2018-06-29T06:22:33.796Z,7.10
2018-06-29T06:25:02.329Z,6.07
2018-06-29T06:27:30.879Z,6.50
2018-06-29T06:29:59.340Z,6.23
2018-06-29T06:32:27.845Z,6.90
2018-06-29T06:34:56.296Z,5.43
2018-06-29T06:37:24.741Z,6.57
2018-06-29T06:39:53.280Z,6.57
2018-06-29T06:42:21.748Z,4.83
2018-06-29T06:44:50.236Z,5.80
2018-06-29T06:47:18.672Z,4.00
2018-06-29T06:49:47.143Z,6.27
2018-06-29T06:52:15.608Z,5.43
2018-06-29T06:54:44.033Z,6.27
2018-06-29T06:57:12.473Z,7.83
2018-06-29T06:59:40.922Z,4.93
2018-06-29T07:02:09.365Z,4.70
2018-06-29T07:04:37.816Z,8.57
2018-06-29T07:07:06.304Z,7.93
2018-06-29T07:09:34.976Z,11.10
2018-06-29T07:12:03.468Z,7.40
2018-06-29T07:14:31.990Z,6.70
2018-06-29T07:17:00.437Z,6.33
2018-06-29T07:19:29.353Z,5.10
2018-06-29T07:21:57.507Z,8.77
2018-06-29T07:24:26.013Z,6.53
2018-06-29T07:26:54.505Z,7.47
2018-06-29T07:29:22.999Z,4.37
2018-06-29T07:31:51.478Z,4.80
2018-06-29T07:34:19.920Z,8.00
2018-06-29T07:36:48.401Z,8.33
2018-06-29T07:39:16.844Z,9.23
2018-06-29T07:41:45.300Z,6.97
2018-06-29T07:44:13.733Z,6.43
2018-06-29T07:46:42.267Z,6.53
2018-06-29T07:49:10.662Z,5.13
2018-06-29T07:51:39.169Z,6.57
2018-06-29T07:54:07.697Z,9.20
2018-06-29T07:56:36.537Z,6.37
2018-06-29T07:59:04.976Z,6.87
2018-06-29T08:01:33.492Z,6.27
2018-06-29T08:04:02.162Z,5.70
2018-06-29T08:06:30.623Z,3.40
2018-06-29T08:08:59.110Z,6.63
2018-06-29T08:11:27.620Z,5.87
2018-06-29T08:13:56.057Z,3.70
2018-06-29T08:16:24.508Z,4.27
2018-06-29T08:18:52.994Z,3.83
2018-06-29T08:21:21.469Z,7.40
2018-06-29T08:23:49.929Z,5.13
2018-06-29T08:26:25.862Z,4.60
2018-06-29T08:28:54.381Z,5.77
2018-06-29T08:31:22.871Z,4.37
2018-06-29T08:33:51.323Z,4.87
2018-06-29T08:36:19.757Z,4.73
2018-06-29T08:38:48.246Z,4.47
2018-06-29T08:41:16.727Z,3.87
2018-06-29T08:43:45.196Z,2.73
2018-06-29T08:46:13.661Z,6.40
2018-06-29T08:48:42.129Z,4.00
2018-06-29T08:51:10.567Z,5.10
2018-06-29T08:53:39.094Z,4.23
2018-06-29T08:56:07.837Z,2.90
2018-06-29T08:58:36.316Z,3.73
2018-06-29T09:01:04.439Z,3.70
2018-06-29T09:03:32.912Z,3.30
2018-06-29T09:06:01.449Z,5.20
2018-06-29T09:08:29.904Z,6.37
2018-06-29T09:10:58.402Z,5.03
2018-06-29T09:13:26.858Z,4.67
2018-06-29T09:15:55.360Z,2.23
2018-06-29T09:18:23.841Z,3.70
2018-06-29T09:20:52.292Z,3.80
2018-06-29T09:23:20.817Z,4.60
2018-06-29T09:25:49.280Z,3.70
2018-06-29T09:28:17.745Z,3.10
2018-06-29T09:30:46.271Z,6.67
2018-06-29T09:33:14.735Z,3.13
2018-06-29T09:35:42.875Z,2.70
2018-06-29T09:38:11.344Z,3.00
2018-06-29T09:40:39.813Z,4.63
2018-06-29T09:43:08.249Z,1.60
2018-06-29T09:45:36.689Z,2.87
2018-06-29T09:48:05.279Z,1.93
2018-06-29T09:50:34.100Z,3.43
2018-06-29T09:53:02.521Z,2.40
2018-06-29T09:55:30.982Z,6.33
2018-06-29T09:57:59.450Z,3.63
2018-06-29T10:00:30.961Z,1.70
2018-06-29T10:03:00.030Z,2.57
2018-06-29T10:05:29.240Z,4.43
2018-06-29T10:07:57.710Z,3.20
2018-06-29T10:10:26.161Z,3.53
2018-06-29T10:12:54.606Z,5.80
2018-06-29T10:15:23.124Z,3.63
2018-06-29T10:17:51.550Z,2.40
2018-06-29T10:20:20.098Z,3.20
2018-06-29T10:22:48.456Z,4.50
2018-06-29T10:25:16.968Z,2.97
2018-06-29T10:27:45.393Z,2.47
2018-06-29T10:30:13.878Z,3.33
2018-06-29T10:32:42.337Z,3.27
2018-06-29T10:35:10.494Z,2.67
2018-06-29T10:37:39.152Z,1.73
2018-06-29T10:40:07.660Z,3.33
2018-06-29T10:42:36.175Z,3.50
2018-06-29T10:45:04.733Z,6.47
2018-06-29T10:47:33.209Z,4.23
2018-06-29T10:50:01.317Z,3.13
2018-06-29T10:52:29.796Z,2.40
2018-06-29T10:54:58.259Z,2.43
2018-06-29T10:57:27.084Z,2.83
2018-06-29T10:59:55.538Z,3.17
2018-06-29T11:02:24.017Z,4.93
2018-06-29T11:04:52.472Z,3.83
2018-06-29T11:07:20.934Z,3.60
2018-06-29T11:09:49.437Z,3.67
2018-06-29T11:12:17.979Z,4.60
2018-06-29T11:14:46.472Z,2.00
2018-06-29T11:17:14.953Z,4.33
2018-06-29T11:19:43.381Z,3.07
2018-06-29T11:22:11.816Z,4.53
2018-06-29T11:24:40.332Z,2.57
2018-06-29T11:27:08.957Z,3.57
2018-06-29T11:29:37.409Z,2.93
2018-06-29T11:32:05.888Z,2.63
2018-06-29T11:34:34.373Z,2.33
2018-06-29T11:37:03.565Z,3.30
2018-06-29T11:39:32.147Z,2.07
2018-06-29T11:42:00.710Z,5.53
2018-06-29T11:44:29.208Z,4.00
2018-06-29T11:46:57.688Z,2.77
2018-06-29T11:49:26.163Z,3.93
2018-06-29T11:51:54.670Z,3.00
2018-06-29T11:54:23.145Z,4.67
2018-06-29T11:56:51.601Z,2.40
2018-06-29T11:59:20.073Z,3.80
2018-06-29T12:01:48.553Z,3.20
2018-06-29T12:04:16.993Z,6.13
2018-06-29T12:06:45.476Z,2.73
2018-06-29T12:09:13.904Z,2.70
2018-06-29T12:11:43.232Z,1.30
2018-06-29T12:14:12.021Z,1.53
2018-06-29T12:16:40.476Z,6.50
2018-06-29T12:19:08.912Z,4.83
2018-06-29T12:21:37.383Z,2.13
2018-06-29T12:24:05.854Z,2.27
2018-06-29T12:26:34.362Z,3.47
2018-06-29T12:29:02.938Z,3.30
2018-06-29T12:31:31.442Z,1.37
2018-06-29T12:33:59.910Z,2.20
2018-06-29T12:36:28.436Z,1.50
2018-06-29T12:38:57.039Z,2.13
2018-06-29T12:41:25.665Z,3.83
2018-06-29T12:43:54.216Z,2.17
2018-06-29T12:46:22.696Z,2.67
2018-06-29T12:48:51.124Z,3.70
2018-06-29T12:51:19.767Z,6.37
2018-06-29T12:53:48.197Z,2.90
2018-06-29T12:56:16.689Z,2.90
2018-06-29T12:58:45.159Z,2.77
2018-06-29T13:01:13.703Z,4.00
2018-06-29T13:03:42.148Z,2.20
2018-06-29T13:06:10.671Z,3.60
2018-06-29T13:08:39.141Z,1.57
2018-06-29T13:11:07.968Z,2.50
2018-06-29T13:13:36.473Z,2.20
2018-06-29T13:16:05.250Z,4.27
2018-06-29T13:18:33.745Z,3.17
2018-06-29T13:21:02.248Z,1.97
2018-06-29T13:23:30.681Z,2.30
2018-06-29T13:25:59.154Z,3.77
2018-06-29T13:28:27.698Z,2.63
2018-06-29T13:30:56.217Z,1.53
2018-06-29T13:33:24.712Z,3.00
2018-06-29T13:35:53.148Z,1.60
2018-06-29T13:38:21.580Z,6.20
2018-06-29T13:40:50.080Z,5.33
2018-06-29T13:43:18.533Z,5.07
2018-06-29T13:45:47.057Z,1.93
2018-06-29T13:48:15.617Z,2.60
2018-06-29T13:50:44.144Z,3.97
2018-06-29T13:53:12.597Z,4.10
2018-06-29T13:55:41.045Z,2.03
2018-06-29T13:58:09.197Z,2.43
2018-06-29T14:00:37.636Z,1.60
2018-06-29T14:03:06.138Z,4.00
2018-06-29T14:05:34.628Z,2.63
2018-06-29T14:08:03.076Z,3.53
2018-06-29T14:10:31.814Z,3.20
2018-06-29T14:13:00.332Z,2.47
2018-06-29T14:15:28.792Z,5.23
2018-06-29T14:17:57.184Z,5.37
2018-06-29T14:20:25.778Z,2.63
2018-06-29T14:22:54.251Z,4.00
2018-06-29T14:25:22.725Z,3.77
2018-06-29T14:27:51.177Z,2.33
2018-06-29T14:30:19.349Z,2.80
2018-06-29T14:32:48.477Z,1.80
2018-06-29T14:35:16.966Z,2.13
2018-06-29T14:37:45.417Z,5.37
2018-06-29T14:40:13.900Z,1.90
2018-06-29T14:42:42.339Z,2.80
2018-06-29T14:45:10.849Z,4.17
2018-06-29T14:47:38.981Z,2.93
2018-06-29T14:50:07.521Z,2.87
2018-06-29T14:52:35.952Z,6.10
2018-06-29T14:55:04.429Z,6.40
2018-06-29T14:57:32.920Z,3.70
2018-06-29T15:00:01.384Z,2.47
2018-06-29T15:02:29.883Z,2.00
2018-06-29T15:04:58.307Z,2.93
2018-06-29T15:07:26.745Z,3.17
2018-06-29T15:09:55.232Z,2.53
2018-06-29T15:12:23.752Z,3.33
2018-06-29T15:14:52.280Z,1.83
2018-06-29T15:17:20.750Z,5.60
2018-06-29T15:19:49.249Z,6.10
2018-06-29T15:22:18.317Z,4.27
2018-06-29T15:24:46.778Z,1.70
2018-06-29T15:27:16.232Z,2.00
2018-06-29T15:29:44.664Z,6.17
2018-06-29T15:32:13.197Z,5.53
2018-06-29T15:34:41.632Z,2.60
2018-06-29T15:37:10.272Z,3.60
2018-06-29T15:39:38.760Z,4.13
2018-06-29T15:42:07.257Z,5.23
2018-06-29T15:44:35.745Z,2.67
2018-06-29T15:47:04.224Z,2.10
2018-06-29T15:49:32.765Z,3.57
2018-06-29T15:52:01.269Z,4.73
2018-06-29T15:54:29.705Z,2.30
2018-06-29T15:56:58.388Z,2.40
2018-06-29T15:59:26.835Z,3.73
2018-06-29T16:01:55.317Z,3.70
2018-06-29T16:04:23.892Z,3.97
2018-06-29T16:06:52.385Z,1.53
2018-06-29T16:09:20.849Z,1.53
2018-06-29T16:11:49.392Z,2.87
2018-06-29T16:14:18.297Z,3.93
2018-06-29T16:16:46.797Z,3.83
2018-06-29T16:19:15.252Z,3.80
2018-06-29T16:21:43.839Z,1.87
2018-06-29T16:24:12.287Z,4.07
2018-06-29T16:26:40.783Z,1.73
2018-06-29T16:29:09.363Z,2.53
2018-06-29T16:31:37.837Z,3.03
2018-06-29T16:34:06.297Z,2.50
2018-06-29T16:36:34.868Z,2.07
2018-06-29T16:39:03.533Z,2.80
2018-06-29T16:41:32.173Z,3.90
2018-06-29T16:44:00.634Z,3.30
2018-06-29T16:46:29.077Z,2.37
2018-06-29T16:48:58.146Z,2.43
2018-06-29T16:51:26.603Z,1.67
2018-06-29T16:53:55.128Z,1.40
2018-06-29T16:56:23.637Z,3.10
2018-06-29T16:58:52.361Z,1.93
2018-06-29T17:01:20.880Z,3.27
2018-06-29T17:03:49.344Z,2.47
2018-06-29T17:06:17.792Z,1.93
2018-06-29T17:08:46.241Z,4.97
2018-06-29T17:11:14.692Z,2.50
2018-06-29T17:13:43.150Z,4.13
2018-06-29T17:16:11.860Z,6.00
2018-06-29T17:18:40.431Z,3.83
2018-06-29T17:21:09.148Z,1.67
2018-06-29T17:23:37.679Z,2.70
2018-06-29T17:26:06.140Z,4.53
2018-06-29T17:28:34.680Z,4.30
2018-06-29T17:31:03.342Z,4.37
2018-06-29T17:33:32.349Z,3.47
2018-06-29T17:36:00.317Z,4.87
2018-06-29T17:38:28.809Z,4.07
2018-06-29T17:40:57.250Z,1.90
2018-06-29T17:43:25.706Z,3.10
2018-06-29T17:45:54.137Z,2.37
2018-06-29T17:48:22.724Z,2.10
2018-06-29T17:50:51.140Z,2.50
2018-06-29T17:53:19.603Z,2.80
2018-06-29T17:55:48.109Z,3.27
2018-06-29T17:58:16.642Z,2.53
2018-06-29T18:00:45.115Z,3.10
2018-06-29T18:03:13.550Z,1.70
2018-06-29T18:05:42.167Z,1.63
2018-06-29T18:08:10.610Z,1.57
2018-06-29T18:10:39.868Z,3.30
2018-06-29T18:13:08.516Z,2.70
2018-06-29T18:15:36.853Z,2.90
2018-06-29T18:18:05.073Z,3.20
2018-06-29T18:20:33.568Z,1.70
2018-06-29T18:23:02.176Z,3.20
2018-06-29T18:25:30.645Z,3.93
2018-06-29T18:27:59.098Z,3.23
2018-06-29T18:30:27.573Z,4.77
2018-06-29T18:32:56.289Z,3.97
2018-06-29T18:35:24.770Z,2.17
2018-06-29T18:37:53.329Z,1.73
2018-06-29T18:40:21.797Z,2.23
2018-06-29T18:42:50.447Z,3.33
2018-06-29T18:45:19.001Z,3.40
2018-06-29T18:47:47.933Z,3.90
2018-06-29T18:50:16.452Z,1.90
2018-06-29T18:52:44.928Z,1.90
2018-06-29T18:55:13.409Z,2.70
2018-06-29T18:57:41.879Z,2.07
2018-06-29T19:00:10.437Z,2.73
2018-06-29T19:02:38.893Z,3.70
2018-06-29T19:05:07.072Z,2.57
2018-06-29T19:07:35.560Z,4.23
2018-06-29T19:10:04.077Z,3.87
2018-06-29T19:12:32.538Z,3.97
2018-06-29T19:15:01.164Z,4.40
2018-06-29T19:17:29.658Z,2.70
2018-06-29T19:19:58.132Z,2.83
2018-06-29T19:22:26.655Z,3.10
2018-06-29T19:24:55.204Z,3.17
2018-06-29T19:27:23.685Z,4.57
2018-06-29T19:29:52.178Z,3.13
2018-06-29T19:32:20.688Z,2.47
2018-06-29T19:34:49.609Z,1.70
2018-06-29T19:37:18.065Z,3.13
2018-06-29T19:39:46.643Z,3.03
2018-06-29T19:42:15.017Z,5.47
2018-06-29T19:44:43.477Z,2.13
2018-06-29T19:47:12.192Z,3.57
2018-06-29T19:49:40.685Z,6.53
2018-06-29T19:52:09.133Z,4.30
2018-06-29T19:54:37.746Z,2.80
2018-06-29T19:57:06.737Z,2.47
2018-06-29T19:59:35.195Z,4.30
2018-06-29T20:02:03.833Z,4.60
2018-06-29T20:04:32.337Z,6.30
2018-06-29T20:07:00.804Z,4.03
2018-06-29T20:09:29.301Z,6.67
2018-06-29T20:11:57.792Z,3.47
2018-06-29T20:14:26.261Z,2.33
2018-06-29T20:16:54.793Z,2.43
2018-06-29T20:19:23.250Z,3.57
2018-06-29T20:21:51.776Z,5.40
2018-06-29T20:24:20.328Z,3.57
2018-06-29T20:26:48.798Z,6.17
2018-06-29T20:29:17.255Z,2.20
2018-06-29T20:31:45.743Z,3.87
2018-06-29T20:34:14.245Z,4.33
2018-06-29T20:36:42.766Z,3.57
2018-06-29T20:39:12.620Z,4.40
2018-06-29T20:41:41.116Z,4.07
2018-06-29T20:44:09.572Z,6.93
2018-06-29T20:46:38.068Z,5.13
2018-06-29T20:49:06.714Z,2.83
2018-06-29T20:51:35.269Z,4.57
2018-06-29T20:54:03.745Z,2.40
2018-06-29T20:56:32.195Z,3.67
2018-06-29T20:59:00.621Z,2.90
2018-06-29T21:01:29.120Z,2.73
2018-06-29T21:03:57.732Z,3.30
2018-06-29T21:06:26.201Z,3.60
2018-06-29T21:08:54.685Z,3.20
2018-06-29T21:11:23.125Z,3.57
2018-06-29T21:13:51.572Z,5.83
2018-06-29T21:16:20.033Z,5.20
2018-06-29T21:18:48.575Z,4.00
2018-06-29T21:21:17.242Z,4.10
2018-06-29T21:23:45.673Z,3.63
2018-06-29T21:26:14.135Z,3.63
2018-06-29T21:28:43.145Z,3.83
2018-06-29T21:31:11.665Z,3.37
2018-06-29T21:33:39.784Z,4.47
2018-06-29T21:36:08.274Z,4.03
2018-06-29T21:38:36.736Z,6.53
2018-06-29T21:41:05.224Z,4.27
2018-06-29T21:43:33.680Z,4.17
2018-06-29T21:46:02.160Z,5.70
2018-06-29T21:48:30.602Z,5.70
2018-06-29T21:50:59.053Z,4.80
2018-06-29T21:53:27.496Z,4.03
2018-06-29T21:55:55.970Z,5.70
2018-06-29T21:58:24.437Z,4.40
2018-06-29T22:00:54.522Z,5.50
2018-06-29T22:03:23.714Z,6.83
2018-06-29T22:05:52.202Z,7.93
2018-06-29T22:08:20.356Z,4.40
2018-06-29T22:10:48.824Z,7.50
2018-06-29T22:13:17.369Z,6.03
2018-06-29T22:15:45.842Z,5.33
2018-06-29T22:18:15.294Z,8.13
2018-06-29T22:20:43.798Z,7.20
2018-06-29T22:23:12.261Z,8.43
2018-06-29T22:25:40.759Z,6.50
2018-06-29T22:28:09.231Z,6.80
2018-06-29T22:30:37.709Z,9.63
2018-06-29T22:33:06.592Z,7.07
2018-06-29T22:35:35.085Z,7.30
2018-06-29T22:38:03.640Z,6.03
2018-06-29T22:40:32.131Z,7.70
2018-06-29T22:43:00.575Z,6.60
2018-06-29T22:45:29.084Z,7.73
2018-06-29T22:47:57.530Z,8.73
2018-06-29T22:50:26.022Z,7.13
2018-06-29T22:52:54.984Z,7.03
2018-06-29T22:55:23.417Z,8.33
2018-06-29T22:57:51.857Z,7.50
2018-06-29T23:00:20.289Z,8.20
2018-06-29T23:02:48.764Z,8.40
2018-06-29T23:05:17.201Z,8.50
2018-06-29T23:07:45.637Z,7.67
2018-06-29T23:12:48.663Z,7.53
2018-06-29T23:15:17.105Z,9.53
2018-06-29T23:17:45.560Z,8.67
2018-06-29T23:20:14.020Z,8.07
2018-06-29T23:22:42.521Z,7.70
2018-06-29T23:25:10.994Z,7.67
2018-06-29T23:27:39.497Z,6.73
2018-06-29T23:30:08.032Z,8.23
2018-06-29T23:32:36.527Z,9.40
2018-06-29T23:35:05.344Z,10.03
2018-06-29T23:37:33.791Z,7.97
2018-06-29T23:40:02.286Z,8.83
2018-06-29T23:42:30.724Z,6.97
2018-06-29T23:44:59.180Z,10.27
2018-06-29T23:47:27.608Z,12.50
2018-06-29T23:49:56.096Z,8.33
2018-06-29T23:52:24.551Z,9.13
2018-06-29T23:54:53.164Z,8.27
2018-06-29T23:57:21.584Z,8.67
2018-06-29T23:59:50.117Z,9.37
